createdAt,value
2023-05-06T00:00:50.669Z,25.3
2023-05-06T00:02:55.836Z,25.36
2023-05-06T00:05:01.189Z,25.39
2023-05-06T00:07:06.330Z,25.41
2023-05-06T00:09:11.385Z,25.48
2023-05-06T00:11:16.420Z,25.5
2023-05-06T00:13:21.523Z,25.52
2023-05-06T00:15:26.528Z,25.56
2023-05-06T00:17:34.976Z,25.58
2023-05-06T00:19:40.537Z,25.54
2023-05-06T00:21:45.639Z,25.47
2023-05-06T00:23:50.652Z,25.38
2023-05-06T00:25:55.829Z,25.32
2023-05-06T00:28:00.894Z,25.26
2023-05-06T00:30:06.000Z,25.21
2023-05-06T00:32:11.054Z,25.16
2023-05-06T00:34:16.502Z,25.12
2023-05-06T00:36:21.634Z,25.08
2023-05-06T00:38:26.662Z,25.06
2023-05-06T00:40:31.693Z,25.03
2023-05-06T00:42:36.707Z,25.01
2023-05-06T00:44:41.887Z,24.99
2023-05-06T00:46:46.973Z,24.96
2023-05-06T00:48:52.100Z,24.94
2023-05-06T00:50:57.282Z,24.95
2023-05-06T00:53:02.340Z,24.94
2023-05-06T00:55:07.655Z,24.91
2023-05-06T00:57:13.201Z,24.93
2023-05-06T00:59:18.291Z,24.92
2023-05-06T01:01:23.279Z,24.91
2023-05-06T01:03:29.054Z,24.91
2023-05-06T01:05:34.414Z,24.89
2023-05-06T01:07:39.468Z,24.9
2023-05-06T01:09:44.660Z,24.89
2023-05-06T01:11:49.727Z,24.89
2023-05-06T01:13:54.814Z,24.88
2023-05-06T01:15:59.811Z,24.89
2023-05-06T01:18:05.009Z,24.89
2023-05-06T01:20:10.207Z,24.88
2023-05-06T01:22:15.299Z,24.85
2023-05-06T01:24:20.322Z,24.85
2023-05-06T01:26:25.379Z,24.83
2023-05-06T01:28:30.416Z,24.83
2023-05-06T01:30:35.469Z,24.81
2023-05-06T01:32:40.507Z,24.8
2023-05-06T01:34:45.718Z,24.8
2023-05-06T01:36:50.889Z,24.8
2023-05-06T01:38:55.943Z,24.8
2023-05-06T01:41:01.017Z,24.82
2023-05-06T01:43:06.145Z,24.79
2023-05-06T01:45:11.316Z,24.8
2023-05-06T01:47:16.534Z,24.79
2023-05-06T01:49:21.598Z,24.79
2023-05-06T01:51:26.642Z,24.81
2023-05-06T01:53:31.761Z,24.8
2023-05-06T01:55:36.807Z,24.78
2023-05-06T01:57:41.861Z,24.74
2023-05-06T01:59:47.017Z,24.79
2023-05-06T02:01:52.428Z,24.78
2023-05-06T02:03:57.761Z,24.77
2023-05-06T02:06:03.214Z,24.79
2023-05-06T02:08:08.255Z,24.8
2023-05-06T02:10:13.287Z,24.79
2023-05-06T02:12:18.458Z,24.78
2023-05-06T02:14:23.481Z,24.74
2023-05-06T02:16:28.626Z,24.75
2023-05-06T02:18:33.909Z,24.75
2023-05-06T02:20:39.069Z,24.74
2023-05-06T02:22:44.120Z,24.72
2023-05-06T02:24:49.173Z,24.76
2023-05-06T02:26:54.238Z,24.74
2023-05-06T02:28:59.248Z,24.74
2023-05-06T02:31:04.320Z,24.75
2023-05-06T02:33:09.603Z,24.74
2023-05-06T02:35:14.624Z,24.74
2023-05-06T02:37:19.697Z,24.74
2023-05-06T02:39:24.817Z,24.77
2023-05-06T02:41:29.861Z,24.77
2023-05-06T02:43:35.012Z,24.74
2023-05-06T02:45:40.135Z,24.73
2023-05-06T02:47:45.329Z,24.75
2023-05-06T02:49:50.664Z,24.74
2023-05-06T02:51:55.726Z,24.73
2023-05-06T02:54:00.842Z,24.74
2023-05-06T02:56:05.898Z,24.73
2023-05-06T02:58:10.940Z,24.75
2023-05-06T03:00:16.072Z,24.77
2023-05-06T03:02:21.259Z,24.75
2023-05-06T03:04:26.393Z,24.78
2023-05-06T03:06:31.558Z,24.79
2023-05-06T03:08:36.699Z,24.81
2023-05-06T03:10:41.695Z,24.81
2023-05-06T03:12:46.915Z,24.78
2023-05-06T03:14:52.985Z,24.79
2023-05-06T03:16:58.011Z,24.77
2023-05-06T03:19:03.388Z,24.76
2023-05-06T03:21:08.445Z,24.75
2023-05-06T03:23:13.792Z,24.75
2023-05-06T03:25:18.835Z,24.73
2023-05-06T03:27:23.910Z,24.72
2023-05-06T03:29:28.901Z,24.7
2023-05-06T03:31:33.955Z,24.68
2023-05-06T03:33:39.194Z,24.69
2023-05-06T03:35:44.233Z,24.69
2023-05-06T03:37:49.376Z,24.68
2023-05-06T03:39:54.430Z,24.68
2023-05-06T03:41:59.452Z,24.67
2023-05-06T03:44:04.526Z,24.68
2023-05-06T03:46:09.555Z,24.66
2023-05-06T03:48:14.731Z,24.64
2023-05-06T03:50:32.161Z,24.62
2023-05-06T03:52:37.195Z,24.64
2023-05-06T03:54:42.232Z,24.65
2023-05-06T03:56:47.270Z,24.66
2023-05-06T03:58:52.302Z,24.68
2023-05-06T04:00:57.430Z,24.68
2023-05-06T04:03:02.631Z,24.66
2023-05-06T04:05:08.128Z,24.65
2023-05-06T04:07:13.960Z,24.66
2023-05-06T04:09:19.023Z,24.65
2023-05-06T04:11:24.118Z,24.67
2023-05-06T04:13:32.304Z,24.67
2023-05-06T04:15:37.384Z,24.67
2023-05-06T04:17:42.531Z,24.65
2023-05-06T04:19:47.739Z,24.65
2023-05-06T04:21:52.834Z,24.63
2023-05-06T04:23:58.033Z,24.64
2023-05-06T04:26:03.071Z,24.62
2023-05-06T04:28:08.131Z,24.6
2023-05-06T04:30:13.274Z,24.55
2023-05-06T04:32:18.339Z,24.55
2023-05-06T04:34:23.450Z,24.55
2023-05-06T04:36:28.492Z,24.56
2023-05-06T04:38:33.510Z,24.54
2023-05-06T04:40:38.572Z,24.53
2023-05-06T04:42:43.627Z,24.53
2023-05-06T04:44:48.842Z,24.54
2023-05-06T04:46:53.925Z,24.54
2023-05-06T04:48:58.962Z,24.53
2023-05-06T04:51:04.136Z,24.55
2023-05-06T04:53:09.242Z,24.53
2023-05-06T04:55:14.322Z,24.53
2023-05-06T04:57:19.372Z,24.52
2023-05-06T04:59:24.389Z,24.5
2023-05-06T05:01:29.482Z,24.49
2023-05-06T05:03:34.757Z,24.51
2023-05-06T05:05:39.989Z,24.53
2023-05-06T05:07:44.996Z,24.58
2023-05-06T05:09:50.105Z,24.59
2023-05-06T05:11:55.190Z,24.58
2023-05-06T05:14:02.066Z,24.61
2023-05-06T05:16:07.472Z,24.61
2023-05-06T05:18:12.545Z,24.62
2023-05-06T05:20:17.593Z,24.62
2023-05-06T05:22:22.672Z,24.64
2023-05-06T05:24:27.689Z,24.61
2023-05-06T05:26:32.705Z,24.63
2023-05-06T05:28:37.799Z,24.66
2023-05-06T05:30:42.820Z,24.63
2023-05-06T05:32:47.936Z,24.62
2023-05-06T05:34:53.200Z,24.61
2023-05-06T05:36:58.408Z,24.58
2023-05-06T05:39:03.733Z,24.57
2023-05-06T05:41:08.807Z,24.58
2023-05-06T05:43:14.021Z,24.58
2023-05-06T05:45:19.060Z,24.58
2023-05-06T05:47:24.128Z,24.56
2023-05-06T05:49:29.301Z,24.56
2023-05-06T05:51:34.366Z,24.54
2023-05-06T05:53:39.509Z,24.54
2023-05-06T05:55:44.532Z,24.54
2023-05-06T05:57:49.683Z,24.55
2023-05-06T05:59:54.665Z,24.53
2023-05-06T06:01:59.718Z,24.53
2023-05-06T06:04:04.850Z,24.53
2023-05-06T06:06:10.738Z,24.54
2023-05-06T06:08:15.805Z,24.52
2023-05-06T06:10:20.881Z,24.53
2023-05-06T06:12:25.978Z,24.53
2023-05-06T06:14:31.043Z,24.52
2023-05-06T06:16:36.158Z,24.52
2023-05-06T06:18:41.670Z,24.52
2023-05-06T06:20:46.821Z,24.51
2023-05-06T06:22:55.011Z,24.49
2023-05-06T06:25:00.026Z,24.47
2023-05-06T06:27:05.117Z,24.47
2023-05-06T06:29:10.241Z,24.48
2023-05-06T06:31:15.342Z,24.5
2023-05-06T06:33:20.630Z,24.51
2023-05-06T06:35:25.630Z,24.51
2023-05-06T06:37:30.679Z,24.51
2023-05-06T06:39:35.729Z,24.54
2023-05-06T06:41:40.800Z,24.54
2023-05-06T06:43:45.900Z,24.54
2023-05-06T06:45:51.007Z,24.53
2023-05-06T06:47:56.329Z,24.53
2023-05-06T06:50:01.539Z,24.54
2023-05-06T06:52:06.605Z,24.53
2023-05-06T06:54:11.634Z,24.51
2023-05-06T06:56:16.627Z,24.52
2023-05-06T06:58:21.694Z,24.56
2023-05-06T07:00:26.854Z,24.58
2023-05-06T07:02:31.897Z,24.6
2023-05-06T07:04:37.169Z,24.58
2023-05-06T07:06:42.502Z,24.56
2023-05-06T07:08:47.508Z,24.55
2023-05-06T07:10:52.580Z,24.54
2023-05-06T07:12:57.775Z,24.51
2023-05-06T07:15:03.066Z,24.52
2023-05-06T07:17:08.211Z,24.5
2023-05-06T07:19:13.453Z,24.5
2023-05-06T07:21:18.594Z,24.48
2023-05-06T07:23:23.670Z,24.45
2023-05-06T07:25:28.720Z,24.46
2023-05-06T07:27:33.765Z,24.43
2023-05-06T07:29:38.796Z,24.45
2023-05-06T07:31:43.818Z,24.44
2023-05-06T07:33:49.239Z,24.4
2023-05-06T07:35:54.290Z,24.39
2023-05-06T07:37:59.339Z,24.4
2023-05-06T07:40:04.381Z,24.39
2023-05-06T07:42:09.495Z,24.38
2023-05-06T07:44:14.582Z,24.36
2023-05-06T07:46:19.812Z,24.35
2023-05-06T07:48:25.264Z,24.35
2023-05-06T07:50:30.467Z,24.34
2023-05-06T07:52:35.541Z,24.35
2023-05-06T07:54:40.638Z,24.34
2023-05-06T07:56:45.722Z,24.34
2023-05-06T07:58:50.746Z,24.33
2023-05-06T08:00:55.774Z,24.31
2023-05-06T08:03:00.932Z,24.3
2023-05-06T08:05:06.339Z,24.29
2023-05-06T08:07:11.936Z,24.31
2023-05-06T08:09:22.197Z,24.31
2023-05-06T08:11:27.412Z,24.31
2023-05-06T08:13:32.443Z,24.33
2023-05-06T08:15:37.526Z,24.32
2023-05-06T08:17:42.629Z,24.35
2023-05-06T08:19:47.844Z,24.4
2023-05-06T08:21:52.940Z,24.41
2023-05-06T08:23:57.970Z,24.43
2023-05-06T08:26:03.004Z,24.46
2023-05-06T08:28:08.026Z,24.48
2023-05-06T08:30:13.041Z,24.49
2023-05-06T08:32:18.078Z,24.49
2023-05-06T08:34:23.230Z,24.51
2023-05-06T08:36:28.275Z,24.51
2023-05-06T08:38:33.342Z,24.51
2023-05-06T08:40:38.388Z,24.53
2023-05-06T08:42:43.428Z,24.58
2023-05-06T08:44:48.503Z,24.65
2023-05-06T08:46:53.657Z,24.69
2023-05-06T08:48:59.087Z,24.72
2023-05-06T08:51:04.277Z,24.79
2023-05-06T08:53:09.727Z,24.82
2023-05-06T08:55:14.740Z,24.88
2023-05-06T08:57:19.856Z,24.9
2023-05-06T08:59:25.058Z,24.93
2023-05-06T09:01:30.193Z,24.94
2023-05-06T09:03:35.456Z,24.9
2023-05-06T09:05:40.873Z,24.87
2023-05-06T09:07:46.050Z,24.87
2023-05-06T09:09:51.174Z,24.86
2023-05-06T09:11:56.574Z,24.87
2023-05-06T09:14:01.778Z,24.89
2023-05-06T09:16:06.854Z,24.89
2023-05-06T09:18:12.052Z,24.87
2023-05-06T09:20:17.238Z,24.83
2023-05-06T09:22:22.420Z,24.79
2023-05-06T09:24:27.687Z,24.79
2023-05-06T09:26:32.749Z,24.79
2023-05-06T09:28:37.916Z,24.81
2023-05-06T09:30:43.186Z,24.85
2023-05-06T09:32:48.346Z,24.57
2023-05-06T09:34:53.508Z,24.5
2023-05-06T09:36:58.566Z,24.5
2023-05-06T09:39:03.632Z,24.51
2023-05-06T09:41:08.749Z,24.48
2023-05-06T09:43:13.823Z,24.5
2023-05-06T09:45:18.853Z,24.53
2023-05-06T09:47:24.105Z,24.55
2023-05-06T09:49:29.419Z,24.56
2023-05-06T09:51:34.486Z,24.58
2023-05-06T09:53:39.628Z,24.58
2023-05-06T09:55:44.833Z,24.53
2023-05-06T09:57:49.918Z,24.6
2023-05-06T09:59:55.049Z,24.62
2023-05-06T10:02:00.290Z,24.58
2023-05-06T10:04:05.623Z,24.6
2023-05-06T10:06:11.743Z,24.6
2023-05-06T10:08:16.772Z,24.6
2023-05-06T10:10:23.484Z,24.56
2023-05-06T10:12:30.385Z,24.56
2023-05-06T10:14:35.578Z,24.61
2023-05-06T10:16:40.729Z,24.68
2023-05-06T10:18:46.077Z,24.74
2023-05-06T10:20:51.158Z,24.79
2023-05-06T10:22:56.343Z,24.86
2023-05-06T10:25:02.090Z,24.9
2023-05-06T10:27:07.239Z,24.93
2023-05-06T10:29:12.348Z,24.98
2023-05-06T10:31:17.398Z,25.02
2023-05-06T10:33:22.604Z,25.07
2023-05-06T10:35:27.663Z,25.1
2023-05-06T10:37:32.775Z,25.15
2023-05-06T10:39:38.189Z,25.17
2023-05-06T10:41:45.855Z,25.19
2023-05-06T10:43:50.933Z,25.2
2023-05-06T10:45:56.064Z,25.23
2023-05-06T10:48:01.521Z,25.25
2023-05-06T10:50:06.898Z,25.27
2023-05-06T10:52:12.099Z,25.28
2023-05-06T10:54:17.411Z,25.29
2023-05-06T10:56:22.554Z,25.29
2023-05-06T10:58:27.765Z,25.28
2023-05-06T11:00:32.861Z,25.28
2023-05-06T11:02:38.000Z,25.3
2023-05-06T11:04:43.327Z,25.31
2023-05-06T11:06:48.465Z,25.32
2023-05-06T11:08:53.625Z,25.33
2023-05-06T11:10:58.683Z,25.32
2023-05-06T11:13:04.018Z,25.32
2023-05-06T11:15:09.324Z,25.31
2023-05-06T11:17:14.924Z,25.32
2023-05-06T11:19:19.944Z,25.32
2023-05-06T11:21:25.049Z,25.34
2023-05-06T11:23:30.083Z,25.36
2023-05-06T11:25:35.121Z,25.39
2023-05-06T11:27:40.243Z,25.43
2023-05-06T11:29:45.314Z,25.48
2023-05-06T11:31:50.489Z,25.51
2023-05-06T11:33:55.664Z,25.54
2023-05-06T11:36:00.824Z,25.55
2023-05-06T11:38:06.123Z,25.58
2023-05-06T11:40:11.495Z,25.6
2023-05-06T11:42:17.165Z,25.61
2023-05-06T11:44:22.301Z,25.62
2023-05-06T11:46:27.396Z,25.66
2023-05-06T11:48:32.789Z,25.68
2023-05-06T11:50:37.832Z,25.69
2023-05-06T11:52:42.906Z,25.72
2023-05-06T11:54:50.118Z,25.72
2023-05-06T11:56:55.427Z,25.74
2023-05-06T11:59:00.516Z,25.74
2023-05-06T12:01:05.576Z,25.76
2023-05-06T12:03:10.781Z,25.77
2023-05-06T12:05:16.114Z,25.77
2023-05-06T12:07:21.272Z,25.77
2023-05-06T12:09:26.395Z,25.77
2023-05-06T12:11:31.502Z,25.77
2023-05-06T12:13:36.628Z,25.79
2023-05-06T12:15:42.035Z,25.8
2023-05-06T12:17:47.155Z,25.79
2023-05-06T12:19:52.378Z,25.82
2023-05-06T12:21:57.439Z,25.83
2023-05-06T12:24:02.617Z,25.83
2023-05-06T12:26:07.897Z,25.84
2023-05-06T12:28:12.971Z,25.82
2023-05-06T12:30:18.212Z,25.81
2023-05-06T12:32:23.315Z,25.79
2023-05-06T12:34:28.569Z,25.82
2023-05-06T12:36:33.637Z,25.83
2023-05-06T12:38:38.712Z,25.83
2023-05-06T12:40:43.686Z,25.84
2023-05-06T12:42:48.674Z,25.85
2023-05-06T12:44:53.744Z,25.85
2023-05-06T12:46:58.917Z,25.85
2023-05-06T12:49:04.160Z,25.86
2023-05-06T12:51:09.275Z,25.89
2023-05-06T12:53:14.314Z,25.9
2023-05-06T12:55:19.471Z,25.89
2023-05-06T12:57:24.530Z,25.88
2023-05-06T12:59:29.619Z,25.89
2023-05-06T13:01:34.754Z,25.89
2023-05-06T13:03:39.936Z,25.89
2023-05-06T13:05:45.255Z,25.9
2023-05-06T13:07:50.423Z,25.9
2023-05-06T13:09:55.488Z,25.89
2023-05-06T13:12:00.628Z,25.89
2023-05-06T13:14:05.708Z,25.88
2023-05-06T13:16:10.711Z,25.87
2023-05-06T13:18:15.806Z,25.85
2023-05-06T13:20:20.808Z,25.83
2023-05-06T13:22:25.866Z,25.85
2023-05-06T13:24:30.908Z,25.86
2023-05-06T13:26:35.985Z,25.89
2023-05-06T13:28:40.974Z,25.89
2023-05-06T13:30:46.167Z,25.92
2023-05-06T13:32:51.336Z,25.93
2023-05-06T13:34:56.646Z,25.94
2023-05-06T13:37:01.695Z,25.94
2023-05-06T13:39:06.755Z,25.91
2023-05-06T13:41:11.854Z,25.9
2023-05-06T13:43:16.924Z,25.9
2023-05-06T13:45:22.073Z,25.88
2023-05-06T13:47:27.207Z,25.88
2023-05-06T13:49:32.579Z,25.88
2023-05-06T13:51:37.745Z,25.88
2023-05-06T13:53:42.810Z,25.86
2023-05-06T13:55:47.957Z,25.87
2023-05-06T13:57:53.073Z,25.85
2023-05-06T13:59:58.203Z,25.84
2023-05-06T14:02:04.134Z,25.83
2023-05-06T14:04:13.758Z,25.85
2023-05-06T14:06:18.826Z,25.86
2023-05-06T14:08:23.921Z,25.85
2023-05-06T14:10:28.984Z,25.87
2023-05-06T14:12:34.091Z,25.89
2023-05-06T14:14:39.316Z,25.89
2023-05-06T14:16:44.539Z,25.89
2023-05-06T14:18:49.873Z,25.86
2023-05-06T14:20:54.952Z,25.85
2023-05-06T14:22:59.998Z,25.8
2023-05-06T14:25:05.067Z,25.78
2023-05-06T14:27:10.480Z,25.74
2023-05-06T14:29:15.678Z,25.69
2023-05-06T14:31:20.757Z,25.69
2023-05-06T14:33:26.208Z,25.66
2023-05-06T14:35:31.306Z,25.64
2023-05-06T14:37:36.453Z,25.64
2023-05-06T14:39:41.584Z,25.65
2023-05-06T14:41:46.601Z,25.65
2023-05-06T14:43:51.667Z,25.64
2023-05-06T14:45:56.826Z,25.61
2023-05-06T14:48:02.050Z,25.62
2023-05-06T14:50:07.285Z,25.58
2023-05-06T14:52:12.367Z,25.55
2023-05-06T14:54:17.632Z,25.46
2023-05-06T14:56:23.090Z,25.46
2023-05-06T14:58:28.529Z,25.39
2023-05-06T15:00:33.867Z,25.47
2023-05-06T15:02:39.274Z,25.29
2023-05-06T15:04:44.836Z,25.35
2023-05-06T15:06:50.140Z,25.29
2023-05-06T15:08:55.251Z,25.15
2023-05-06T15:11:02.398Z,25.08
2023-05-06T15:13:08.695Z,25.01
2023-05-06T15:15:14.002Z,25.01
2023-05-06T15:17:19.262Z,25.01
2023-05-06T15:19:24.319Z,25.02
2023-05-06T15:21:29.391Z,25.04
2023-05-06T15:23:34.468Z,25.04
2023-05-06T15:25:39.796Z,25.05
2023-05-06T15:27:45.512Z,25.08
2023-05-06T15:29:50.673Z,25.08
2023-05-06T15:31:55.858Z,25.07
2023-05-06T15:34:01.077Z,25.07
2023-05-06T15:36:06.158Z,25.09
2023-05-06T15:38:11.195Z,25.13
2023-05-06T15:40:16.224Z,25.14
2023-05-06T15:42:21.294Z,25.14
2023-05-06T15:44:26.906Z,25.15
2023-05-06T15:46:32.217Z,25.17
2023-05-06T15:48:37.568Z,25.17
2023-05-06T15:50:42.620Z,25.15
2023-05-06T15:52:47.708Z,25.14
2023-05-06T15:54:57.487Z,25.13
2023-05-06T15:57:05.081Z,25.12
2023-05-06T15:59:11.608Z,25.13
2023-05-06T16:01:18.058Z,25.1
2023-05-06T16:03:54.895Z,25.11
2023-05-06T16:06:00.624Z,25.09
2023-05-06T16:08:05.714Z,25.06
2023-05-06T16:10:11.059Z,25.07
2023-05-06T16:12:16.822Z,25.06
2023-05-06T16:14:21.890Z,25.06
2023-05-06T16:16:27.113Z,25.07
2023-05-06T16:18:32.385Z,25.05
2023-05-06T16:20:37.447Z,25.04
2023-05-06T16:22:42.685Z,25.04
2023-05-06T16:24:47.806Z,25.03
2023-05-06T16:26:52.973Z,25.03
2023-05-06T16:28:59.823Z,25.01
2023-05-06T16:31:05.109Z,25.03
2023-05-06T16:33:10.634Z,25.03
2023-05-06T16:35:15.792Z,25.01
2023-05-06T16:37:20.938Z,25
2023-05-06T16:39:26.134Z,25.03
2023-05-06T16:41:31.222Z,25.03
2023-05-06T16:43:36.333Z,25.01
2023-05-06T16:45:41.428Z,25
2023-05-06T16:47:46.632Z,24.95
2023-05-06T16:49:51.947Z,24.98
2023-05-06T16:51:57.182Z,24.96
2023-05-06T16:54:02.371Z,24.97
2023-05-06T16:56:07.482Z,24.92
2023-05-06T16:58:12.777Z,24.95
2023-05-06T17:00:17.943Z,24.94
2023-05-06T17:02:23.047Z,24.9
2023-05-06T17:04:28.298Z,24.9
2023-05-06T17:06:33.424Z,24.98
2023-05-06T17:08:38.722Z,25.07
2023-05-06T17:10:43.924Z,25.13
2023-05-06T17:12:49.167Z,25.19
2023-05-06T17:14:54.774Z,25.23
2023-05-06T17:17:00.076Z,25.3
2023-05-06T17:19:05.646Z,25.35
2023-05-06T17:21:10.757Z,25.36
2023-05-06T17:23:16.019Z,25.45
2023-05-06T17:25:21.174Z,25.48
2023-05-06T17:27:26.468Z,25.55
2023-05-06T17:29:31.772Z,25.59
2023-05-06T17:31:37.258Z,25.61
2023-05-06T17:33:42.648Z,25.63
2023-05-06T17:35:47.828Z,25.68
2023-05-06T17:37:53.077Z,25.72
2023-05-06T17:39:58.310Z,25.76
2023-05-06T17:42:03.453Z,25.79
2023-05-06T17:44:08.591Z,25.83
2023-05-06T17:46:13.833Z,25.84
2023-05-06T17:48:22.241Z,25.88
2023-05-06T17:50:27.385Z,25.9
2023-05-06T17:52:32.497Z,25.92
2023-05-06T17:54:37.612Z,25.93
2023-05-06T17:56:42.737Z,25.97
2023-05-06T17:58:48.108Z,25.98
2023-05-06T18:00:53.328Z,26.01
2023-05-06T18:02:58.470Z,26.02
2023-05-06T18:05:03.955Z,26.03
2023-05-06T18:07:09.314Z,26.07
2023-05-06T18:09:14.404Z,26.11
2023-05-06T18:11:19.469Z,26.12
2023-05-06T18:13:24.577Z,26.13
2023-05-06T18:15:30.342Z,26.14
2023-05-06T18:17:35.499Z,26.16
2023-05-06T18:19:40.801Z,26.17
2023-05-06T18:21:45.867Z,26.11
2023-05-06T18:23:53.557Z,26.02
2023-05-06T18:26:35.217Z,25.92
2023-05-06T18:28:50.067Z,25.83
2023-05-06T18:30:55.105Z,25.76
2023-05-06T18:33:00.215Z,25.7
2023-05-06T18:35:05.605Z,25.65
2023-05-06T18:37:11.044Z,25.59
2023-05-06T18:39:16.158Z,25.6
2023-05-06T18:41:21.326Z,25.61
2023-05-06T18:43:26.387Z,25.62
2023-05-06T18:45:31.493Z,25.62
2023-05-06T18:47:36.695Z,25.58
2023-05-06T18:49:41.870Z,25.58
2023-05-06T18:51:47.002Z,25.57
2023-05-06T18:53:52.106Z,25.55
2023-05-06T18:55:57.273Z,25.56
2023-05-06T18:58:02.338Z,25.55
2023-05-06T19:00:07.485Z,25.55
2023-05-06T19:02:12.594Z,25.55
2023-05-06T19:04:17.664Z,25.53
2023-05-06T19:06:23.069Z,25.51
2023-05-06T19:08:28.267Z,25.54
2023-05-06T19:10:33.472Z,25.51
2023-05-06T19:12:38.629Z,25.48
2023-05-06T19:14:43.802Z,25.5
2023-05-06T19:16:49.029Z,25.51
2023-05-06T19:18:54.600Z,25.51
2023-05-06T19:20:59.653Z,25.51
2023-05-06T19:23:04.854Z,25.52
2023-05-06T19:25:10.205Z,25.52
2023-05-06T19:27:15.810Z,25.53
2023-05-06T19:29:20.999Z,25.53
2023-05-06T19:31:26.152Z,25.55
2023-05-06T19:33:31.489Z,25.55
2023-05-06T19:35:36.631Z,25.55
2023-05-06T19:37:41.683Z,25.54
2023-05-06T19:39:46.813Z,25.53
2023-05-06T19:41:51.901Z,25.53
2023-05-06T19:43:57.013Z,25.51
2023-05-06T19:46:02.117Z,25.52
2023-05-06T19:48:07.486Z,25.52
2023-05-06T19:50:13.292Z,25.51
2023-05-06T19:52:18.511Z,25.53
2023-05-06T19:54:23.716Z,25.55
2023-05-06T19:56:28.823Z,25.55
2023-05-06T19:58:33.940Z,25.55
2023-05-06T20:00:38.991Z,25.55
2023-05-06T20:02:44.129Z,25.56
2023-05-06T20:07:24.651Z,25.53
2023-05-06T20:09:29.783Z,25.51
2023-05-06T20:11:34.826Z,25.5
2023-05-06T20:13:39.910Z,25.52
2023-05-06T20:15:45.095Z,25.51
2023-05-06T20:17:50.339Z,25.5
2023-05-06T20:19:55.702Z,25.47
2023-05-06T20:22:00.811Z,25.45
2023-05-06T20:24:05.905Z,25.45
2023-05-06T20:26:10.955Z,25.4
2023-05-06T20:28:16.011Z,25.44
2023-05-06T20:30:21.180Z,25.46
2023-05-06T20:32:26.428Z,25.44
2023-05-06T20:34:31.670Z,25.44
2023-05-06T20:36:36.766Z,25.43
2023-05-06T20:38:41.828Z,25.44
2023-05-06T20:40:46.970Z,25.45
2023-05-06T20:42:51.993Z,25.46
2023-05-06T20:44:57.057Z,25.5
2023-05-06T20:47:02.502Z,25.55
2023-05-06T20:49:07.569Z,25.58
2023-05-06T20:51:12.694Z,25.63
2023-05-06T20:53:17.802Z,25.63
2023-05-06T20:55:23.437Z,25.61
2023-05-06T20:57:28.876Z,25.58
2023-05-06T20:59:33.970Z,25.58
2023-05-06T21:01:39.177Z,25.55
2023-05-06T21:03:44.565Z,25.54
2023-05-06T21:05:49.799Z,25.52
2023-05-06T21:07:54.893Z,25.5
2023-05-06T21:09:59.975Z,25.51
2023-05-06T21:12:05.091Z,25.51
2023-05-06T21:14:10.219Z,25.51
2023-05-06T21:16:15.281Z,25.47
2023-05-06T21:18:20.471Z,25.46
2023-05-06T21:20:26.188Z,25.45
2023-05-06T21:22:31.241Z,25.44
2023-05-06T21:24:36.271Z,25.43
2023-05-06T21:26:41.333Z,25.42
2023-05-06T21:28:46.376Z,25.41
2023-05-06T21:30:51.437Z,25.4
2023-05-06T21:32:56.648Z,25.41
2023-05-06T21:35:01.936Z,25.38
2023-05-06T21:37:07.079Z,25.39
2023-05-06T21:39:12.208Z,25.39
2023-05-06T21:41:17.370Z,25.36
2023-05-06T21:43:22.402Z,25.36
2023-05-06T21:45:27.427Z,25.32
2023-05-06T21:47:32.509Z,25.34
2023-05-06T21:49:37.766Z,25.34
2023-05-06T21:51:42.985Z,25.35
2023-05-06T21:53:48.059Z,25.39
2023-05-06T21:55:53.216Z,25.42
2023-05-06T21:57:58.335Z,25.45
2023-05-06T22:00:03.373Z,25.44
2023-05-06T22:02:08.484Z,25.43
2023-05-06T22:04:13.779Z,25.41
2023-05-06T22:06:18.920Z,25.39
2023-05-06T22:08:24.038Z,25.4
2023-05-06T22:10:29.172Z,25.39
2023-05-06T22:12:34.248Z,25.39
2023-05-06T22:14:41.360Z,25.39
2023-05-06T22:16:46.633Z,25.38
2023-05-06T22:18:51.748Z,25.38
2023-05-06T22:20:56.784Z,25.39
2023-05-06T22:23:01.958Z,25.39
2023-05-06T22:25:07.069Z,25.38
2023-05-06T22:27:13.366Z,25.39
2023-05-06T22:29:18.522Z,25.41
2023-05-06T22:31:23.625Z,25.39
2023-05-06T22:33:29.151Z,25.38
2023-05-06T22:35:34.299Z,25.38
2023-05-06T22:37:39.383Z,25.37
2023-05-06T22:39:44.436Z,25.38
2023-05-06T22:41:49.623Z,25.36
2023-05-06T22:43:54.692Z,25.36
2023-05-06T22:45:59.755Z,25.34
2023-05-06T22:48:05.100Z,25.33
2023-05-06T22:50:10.362Z,25.33
2023-05-06T22:52:15.553Z,25.32
2023-05-06T22:54:20.805Z,25.33
2023-05-06T22:56:25.993Z,25.34
2023-05-06T22:58:31.013Z,25.33
2023-05-06T23:00:36.038Z,25.34
2023-05-06T23:02:41.299Z,25.35
2023-05-06T23:04:46.662Z,25.34
2023-05-06T23:06:52.481Z,25.35
2023-05-06T23:08:57.513Z,25.35
2023-05-06T23:11:02.556Z,25.33
2023-05-06T23:13:07.702Z,25.33
2023-05-06T23:15:13.031Z,25.32
2023-05-06T23:17:18.258Z,25.32
2023-05-06T23:19:23.363Z,25.26
2023-05-06T23:21:28.377Z,25.22
2023-05-06T23:23:33.429Z,25.18
2023-05-06T23:25:38.481Z,25.04
2023-05-06T23:27:43.560Z,24.93
2023-05-06T23:29:48.630Z,24.86
2023-05-06T23:31:53.656Z,24.76
2023-05-06T23:33:58.805Z,24.71
2023-05-06T23:36:03.868Z,24.66
2023-05-06T23:38:08.916Z,24.61
2023-05-06T23:40:14.001Z,24.54
2023-05-06T23:42:19.202Z,24.5
2023-05-06T23:44:24.526Z,24.44
2023-05-06T23:46:29.735Z,24.4
2023-05-06T23:48:35.305Z,24.37
2023-05-06T23:50:40.339Z,24.37
2023-05-06T23:52:45.512Z,24.36
2023-05-06T23:54:50.875Z,24.35
2023-05-06T23:56:55.931Z,24.34
2023-05-06T23:59:01.178Z,24.33
